sensor_id;sensor_type;location;lat;lon;timestamp;pressure;altitude;pressure_sealevel;temperature;humidity
59513;BME280;45330;51.634;5.562;2022-10-18T00:02:12;102483.59;;;13.57;100.00
59513;BME280;45330;51.634;5.562;2022-10-18T00:04:37;102508.06;;;13.65;100.00
59513;BME280;45330;51.634;5.562;2022-10-18T00:07:03;102502.84;;;13.65;100.00
59513;BME280;45330;51.634;5.562;2022-10-18T00:09:29;102496.69;;;13.61;100.00
59513;BME280;45330;51.634;5.562;2022-10-18T00:11:54;102478.34;;;13.53;100.00
59513;BME280;45330;51.634;5.562;2022-10-18T00:14:20;102472.19;;;13.51;100.00
59513;BME280;45330;51.634;5.562;2022-10-18T00:16:45;102494.97;;;13.62;100.00
59513;BME280;45330;51.634;5.562;2022-10-18T00:19:10;102483.59;;;13.60;100.00
59513;BME280;45330;51.634;5.562;2022-10-18T00:21:36;102482.75;;;13.61;100.00
59513;BME280;45330;51.634;5.562;2022-10-18T00:24:02;102469.56;;;13.50;100.00
59513;BME280;45330;51.634;5.562;2022-10-18T00:26:28;102488.88;;;13.64;100.00
59513;BME280;45330;51.634;5.562;2022-10-18T00:28:57;102489.72;;;13.62;100.00
59513;BME280;45330;51.634;5.562;2022-10-18T00:31:36;102470.47;;;13.49;100.00
59513;BME280;45330;51.634;5.562;2022-10-18T00:34:05;102474.81;;;13.51;100.00
59513;BME280;45330;51.634;5.562;2022-10-18T00:36:33;102493.22;;;13.62;100.00
59513;BME280;45330;51.634;5.562;2022-10-18T00:39:00;102497.59;;;13.65;100.00
59513;BME280;45330;51.634;5.562;2022-10-18T00:41:28;102492.34;;;13.62;100.00
59513;BME280;45330;51.634;5.562;2022-10-18T00:46:44;102480.94;;;13.53;100.00
59513;BME280;45330;51.634;5.562;2022-10-18T00:49:20;102480.09;;;13.54;100.00
59513;BME280;45330;51.634;5.562;2022-10-18T00:52:02;102487.03;;;13.55;100.00
59513;BME280;45330;51.634;5.562;2022-10-18T00:54:31;102477.38;;;13.44;100.00
59513;BME280;45330;51.634;5.562;2022-10-18T00:56:57;102476.47;;;13.40;100.00
59513;BME280;45330;51.634;5.562;2022-10-18T00:59:23;102496.63;;;13.52;100.00
59513;BME280;45330;51.634;5.562;2022-10-18T01:01:49;102497.47;;;13.48;100.00
59513;BME280;45330;51.634;5.562;2022-10-18T01:04:16;102491.31;;;13.44;100.00
59513;BME280;45330;51.634;5.562;2022-10-18T01:07:19;102501.84;;;13.50;100.00
59513;BME280;45330;51.634;5.562;2022-10-18T01:18:45;102486.91;;;13.37;100.00
59513;BME280;45330;51.634;5.562;2022-10-18T01:23:56;102507.94;;;13.48;100.00
59513;BME280;45330;51.634;5.562;2022-10-18T01:29:21;102506.16;;;13.48;100.00
59513;BME280;45330;51.634;5.562;2022-10-18T01:31:58;102505.31;;;13.49;100.00
59513;BME280;45330;51.634;5.562;2022-10-18T01:34:27;102494.75;;;13.37;100.00
59513;BME280;45330;51.634;5.562;2022-10-18T01:36:55;102491.28;;;13.36;100.00
59513;BME280;45330;51.634;5.562;2022-10-18T01:39:33;102500.06;;;13.46;100.00
59513;BME280;45330;51.634;5.562;2022-10-18T01:42:01;102513.16;;;13.46;100.00
59513;BME280;45330;51.634;5.562;2022-10-18T01:44:30;102504.41;;;13.44;100.00
59513;BME280;45330;51.634;5.562;2022-10-18T01:46:57;102513.97;;;13.42;100.00
59513;BME280;45330;51.634;5.562;2022-10-18T01:49:24;102496.50;;;13.36;100.00
59513;BME280;45330;51.634;5.562;2022-10-18T01:51:50;102504.34;;;13.36;100.00
59513;BME280;45330;51.634;5.562;2022-10-18T01:54:20;102510.47;;;13.40;100.00
59513;BME280;45330;51.634;5.562;2022-10-18T01:56:55;102493.81;;;13.32;100.00
59513;BME280;45330;51.634;5.562;2022-10-18T01:59:59;102507.00;;;13.43;100.00
59513;BME280;45330;51.634;5.562;2022-10-18T02:02:56;102510.47;;;13.40;100.00
59513;BME280;45330;51.634;5.562;2022-10-18T02:05:39;102496.38;;;13.30;100.00
59513;BME280;45330;51.634;5.562;2022-10-18T02:08:28;102512.22;;;13.40;100.00
59513;BME280;45330;51.634;5.562;2022-10-18T02:11:02;102514.78;;;13.35;100.00
59513;BME280;45330;51.634;5.562;2022-10-18T02:13:51;102520.03;;;13.38;100.00
59513;BME280;45330;51.634;5.562;2022-10-18T02:16:22;102513.94;;;13.37;100.00
59513;BME280;45330;51.634;5.562;2022-10-18T02:18:54;102496.38;;;13.27;100.00
59513;BME280;45330;51.634;5.562;2022-10-18T02:21:23;102504.28;;;13.32;100.00
59513;BME280;45330;51.634;5.562;2022-10-18T02:23:51;102488.50;;;13.26;100.00
59513;BME280;45330;51.634;5.562;2022-10-18T02:26:16;102504.34;;;13.35;100.00
59513;BME280;45330;51.634;5.562;2022-10-18T02:28:43;102494.56;;;13.21;100.00
59513;BME280;45330;51.634;5.562;2022-10-18T02:31:12;102507.72;;;13.29;100.00
59513;BME280;45330;51.634;5.562;2022-10-18T02:36:29;102507.72;;;13.28;100.00
59513;BME280;45330;51.634;5.562;2022-10-18T02:39:01;102515.53;;;13.26;100.00
59513;BME280;45330;51.634;5.562;2022-10-18T02:41:30;102507.63;;;13.18;100.00
59513;BME280;45330;51.634;5.562;2022-10-18T02:43:55;102519.84;;;13.23;100.00
59513;BME280;45330;51.634;5.562;2022-10-18T02:46:21;102499.69;;;13.09;100.00
59513;BME280;45330;51.634;5.562;2022-10-18T02:48:46;102495.28;;;13.05;100.00
59513;BME280;45330;51.634;5.562;2022-10-18T02:51:12;102519.78;;;13.15;100.00
59513;BME280;45330;51.634;5.562;2022-10-18T02:53:37;102518.91;;;13.16;100.00
59513;BME280;45330;51.634;5.562;2022-10-18T02:56:03;102527.66;;;13.18;100.00
59513;BME280;45330;51.634;5.562;2022-10-18T02:58:28;102525.94;;;13.21;100.00
59513;BME280;45330;51.634;5.562;2022-10-18T03:00:53;102507.50;;;13.09;100.00
59513;BME280;45330;51.634;5.562;2022-10-18T03:03:19;102518.94;;;13.19;100.00
59513;BME280;45330;51.634;5.562;2022-10-18T03:05:48;102504.06;;;13.10;100.00
59513;BME280;45330;51.634;5.562;2022-10-18T03:08:13;102508.41;;;13.11;100.00
59513;BME280;45330;51.634;5.562;2022-10-18T03:10:38;102524.25;;;13.27;100.00
59513;BME280;45330;51.634;5.562;2022-10-18T03:13:04;102514.63;;;13.21;100.00
59513;BME280;45330;51.634;5.562;2022-10-18T03:15:29;102535.59;;;13.30;100.00
59513;BME280;45330;51.634;5.562;2022-10-18T03:17:55;102529.53;;;13.31;100.00
59513;BME280;45330;51.634;5.562;2022-10-18T03:20:20;102512.88;;;13.21;100.00
59513;BME280;45330;51.634;5.562;2022-10-18T03:22:46;102528.75;;;13.37;100.00
59513;BME280;45330;51.634;5.562;2022-10-18T03:25:11;102526.13;;;13.37;100.00
59513;BME280;45330;51.634;5.562;2022-10-18T03:27:36;102520.06;;;13.40;100.00
59513;BME280;45330;51.634;5.562;2022-10-18T03:30:02;102506.00;;;13.33;100.00
59513;BME280;45330;51.634;5.562;2022-10-18T03:32:29;102522.69;;;13.41;100.00
59513;BME280;45330;51.634;5.562;2022-10-18T03:34:55;102521.78;;;13.37;100.00
59513;BME280;45330;51.634;5.562;2022-10-18T03:37:20;102534.00;;;13.40;100.00
59513;BME280;45330;51.634;5.562;2022-10-18T03:39:46;102515.66;;;13.37;100.00
59513;BME280;45330;51.634;5.562;2022-10-18T03:42:11;102537.56;;;13.48;100.00
59513;BME280;45330;51.634;5.562;2022-10-18T03:44:36;102525.38;;;13.47;100.00
59513;BME280;45330;51.634;5.562;2022-10-18T03:47:02;102529.72;;;13.48;100.00
59513;BME280;45330;51.634;5.562;2022-10-18T03:49:27;102535.84;;;13.50;100.00
59513;BME280;45330;51.634;5.562;2022-10-18T03:51:52;102541.09;;;13.55;100.00
59513;BME280;45330;51.634;5.562;2022-10-18T03:54:18;102537.63;;;13.54;100.00
59513;BME280;45330;51.634;5.562;2022-10-18T03:56:43;102521.03;;;13.52;100.00
59513;BME280;45330;51.634;5.562;2022-10-18T03:59:08;102496.53;;;13.43;100.00
59513;BME280;45330;51.634;5.562;2022-10-18T04:01:34;102512.31;;;13.53;100.00
59513;BME280;45330;51.634;5.562;2022-10-18T04:03:59;102462.38;;;13.26;100.00
59513;BME280;45330;51.634;5.562;2022-10-18T04:06:25;102485.19;;;13.39;100.00
59513;BME280;45330;51.634;5.562;2022-10-18T04:08:50;102498.34;;;13.50;100.00
59513;BME280;45330;51.634;5.562;2022-10-18T04:11:15;102510.56;;;13.51;100.00
59513;BME280;45330;51.634;5.562;2022-10-18T04:13:41;102499.16;;;13.41;100.00
59513;BME280;45330;51.634;5.562;2022-10-18T04:16:06;102514.91;;;13.49;100.00
59513;BME280;45330;51.634;5.562;2022-10-18T04:18:32;102495.66;;;13.39;100.00
59513;BME280;45330;51.634;5.562;2022-10-18T04:20:57;102514.94;;;13.50;100.00
59513;BME280;45330;51.634;5.562;2022-10-18T04:23:23;102496.53;;;13.40;100.00
59513;BME280;45330;51.634;5.562;2022-10-18T04:25:48;102512.31;;;13.50;100.00
59513;BME280;45330;51.634;5.562;2022-10-18T04:28:13;102504.38;;;13.41;100.00
59513;BME280;45330;51.634;5.562;2022-10-18T04:30:39;102510.47;;;13.42;100.00
59513;BME280;45330;51.634;5.562;2022-10-18T04:33:04;102529.72;;;13.48;100.00
59513;BME280;45330;51.634;5.562;2022-10-18T04:35:29;102526.22;;;13.46;100.00
59513;BME280;45330;51.634;5.562;2022-10-18T04:37:55;102520.97;;;13.43;100.00
59513;BME280;45330;51.634;5.562;2022-10-18T04:40:20;102534.03;;;13.43;100.00
59513;BME280;45330;51.634;5.562;2022-10-18T04:42:46;102538.38;;;13.44;100.00
59513;BME280;45330;51.634;5.562;2022-10-18T04:45:12;102540.13;;;13.44;100.00
59513;BME280;45330;51.634;5.562;2022-10-18T04:47:37;102526.97;;;13.36;100.00
59513;BME280;45330;51.634;5.562;2022-10-18T04:50:03;102541.88;;;13.43;100.00
59513;BME280;45330;51.634;5.562;2022-10-18T04:52:30;102531.38;;;13.40;100.00
59513;BME280;45330;51.634;5.562;2022-10-18T04:54:55;102502.50;;;13.31;100.00
59513;BME280;45330;51.634;5.562;2022-10-18T04:57:20;102520.81;;;13.31;100.00
59513;BME280;45330;51.634;5.562;2022-10-18T04:59:46;102523.44;;;13.34;100.00
59513;BME280;45330;51.634;5.562;2022-10-18T05:02:11;102510.28;;;13.25;100.00
59513;BME280;45330;51.634;5.562;2022-10-18T05:04:37;102512.00;;;13.19;100.00
59513;BME280;45330;51.634;5.562;2022-10-18T05:07:02;102527.69;;;13.21;100.00
59513;BME280;45330;51.634;5.562;2022-10-18T05:09:30;102532.06;;;13.22;100.00
59513;BME280;45330;51.634;5.562;2022-10-18T05:11:55;102535.50;;;13.16;100.00
59513;BME280;45330;51.634;5.562;2022-10-18T05:14:20;102537.25;;;13.19;100.00
59513;BME280;45330;51.634;5.562;2022-10-18T05:16:46;102540.72;;;13.16;100.00
59513;BME280;45330;51.634;5.562;2022-10-18T05:19:11;102531.00;;;13.06;100.00
59513;BME280;45330;51.634;5.562;2022-10-18T05:21:36;102544.06;;;13.03;100.00
59513;BME280;45330;51.634;5.562;2022-10-18T05:24:02;102540.56;;;13.01;100.00
59513;BME280;45330;51.634;5.562;2022-10-18T05:26:27;102553.66;;;13.06;100.00
59513;BME280;45330;51.634;5.562;2022-10-18T05:28:53;102548.34;;;12.99;100.00
59513;BME280;45330;51.634;5.562;2022-10-18T05:31:18;102558.06;;;13.08;100.00
59513;BME280;45330;51.634;5.562;2022-10-18T05:33:44;102547.47;;;12.96;100.00
59513;BME280;45330;51.634;5.562;2022-10-18T05:36:09;102568.50;;;13.08;100.00
59513;BME280;45330;51.634;5.562;2022-10-18T05:38:37;102564.13;;;13.06;100.00
59513;BME280;45330;51.634;5.562;2022-10-18T05:41:03;102559.69;;;13.00;100.00
59513;BME280;45330;51.634;5.562;2022-10-18T05:43:29;102574.56;;;13.06;100.00
59513;BME280;45330;51.634;5.562;2022-10-18T05:45:54;102570.19;;;13.03;100.00
59513;BME280;45330;51.634;5.562;2022-10-18T05:48:20;102544.72;;;12.86;100.00
59513;BME280;45330;51.634;5.562;2022-10-18T05:50:45;102539.47;;;12.82;100.00
59513;BME280;45330;51.634;5.562;2022-10-18T05:53:11;102563.94;;;12.89;100.00
59513;BME280;45330;51.634;5.562;2022-10-18T05:55:36;102549.75;;;12.69;100.00
59513;BME280;45330;51.634;5.562;2022-10-18T05:58:02;102554.13;;;12.70;100.00
59513;BME280;45330;51.634;5.562;2022-10-18T06:00:28;102554.91;;;12.63;100.00
59513;BME280;45330;51.634;5.562;2022-10-18T06:02:54;102576.78;;;12.70;100.00
59513;BME280;45330;51.634;5.562;2022-10-18T06:05:19;102577.56;;;12.64;100.00
59513;BME280;45330;51.634;5.562;2022-10-18T06:07:45;102559.94;;;12.49;100.00
59513;BME280;45330;51.634;5.562;2022-10-18T06:10:10;102580.97;;;12.59;100.00
59513;BME280;45330;51.634;5.562;2022-10-18T06:12:35;102559.91;;;12.46;100.00
59513;BME280;45330;51.634;5.562;2022-10-18T06:15:01;102546.75;;;12.40;100.00
59513;BME280;45330;51.634;5.562;2022-10-18T06:17:26;102579.22;;;12.58;100.00
59513;BME280;45330;51.634;5.562;2022-10-18T06:19:51;102580.03;;;12.53;100.00
59513;BME280;45330;51.634;5.562;2022-10-18T06:22:17;102574.75;;;12.50;100.00
59513;BME280;45330;51.634;5.562;2022-10-18T06:24:42;102561.56;;;12.41;100.00
59513;BME280;45330;51.634;5.562;2022-10-18T06:27:07;102569.44;;;12.44;100.00
59513;BME280;45330;51.634;5.562;2022-10-18T06:29:37;102567.72;;;12.43;100.00
59513;BME280;45330;51.634;5.562;2022-10-18T06:32:03;102574.63;;;12.43;100.00
59513;BME280;45330;51.634;5.562;2022-10-18T06:34:29;102587.72;;;12.44;100.00
59513;BME280;45330;51.634;5.562;2022-10-18T06:36:55;102601.72;;;12.49;100.00
59513;BME280;45330;51.634;5.562;2022-10-18T06:39:20;102604.38;;;12.52;100.00
59513;BME280;45330;51.634;5.562;2022-10-18T06:41:46;102590.28;;;12.40;100.00
59513;BME280;45330;51.634;5.562;2022-10-18T06:44:11;102619.19;;;12.52;100.00
59513;BME280;45330;51.634;5.562;2022-10-18T06:46:40;102623.50;;;12.53;100.00
59513;BME280;45330;51.634;5.562;2022-10-18T06:49:06;102609.53;;;12.46;100.00
59513;BME280;45330;51.634;5.562;2022-10-18T06:51:31;102604.25;;;12.43;100.00
59513;BME280;45330;51.634;5.562;2022-10-18T06:53:57;102622.66;;;12.52;100.00
59513;BME280;45330;51.634;5.562;2022-10-18T06:56:22;102625.31;;;12.56;100.00
59513;BME280;45330;51.634;5.562;2022-10-18T06:58:47;102619.03;;;12.43;100.00
59513;BME280;45330;51.634;5.562;2022-10-18T07:01:15;102642.75;;;12.58;100.00
59513;BME280;45330;51.634;5.562;2022-10-18T07:03:41;102650.56;;;12.57;100.00
59513;BME280;45330;51.634;5.562;2022-10-18T07:06:08;102626.00;;;12.44;100.00
59513;BME280;45330;51.634;5.562;2022-10-18T07:08:34;102642.72;;;12.55;100.00
59513;BME280;45330;51.634;5.562;2022-10-18T07:11:00;102627.78;;;12.45;100.00
59513;BME280;45330;51.634;5.562;2022-10-18T07:13:29;102654.19;;;12.66;100.00
59513;BME280;45330;51.634;5.562;2022-10-18T07:16:03;102656.03;;;12.75;100.00
59513;BME280;45330;51.634;5.562;2022-10-18T07:18:29;102648.09;;;12.64;100.00
59513;BME280;45330;51.634;5.562;2022-10-18T07:20:55;102650.75;;;12.69;100.00
59513;BME280;45330;51.634;5.562;2022-10-18T07:23:20;102664.78;;;12.76;100.00
59513;BME280;45330;51.634;5.562;2022-10-18T07:25:48;102665.78;;;12.85;100.00
59513;BME280;45330;51.634;5.562;2022-10-18T07:28:13;102654.41;;;12.82;100.00
59513;BME280;45330;51.634;5.562;2022-10-18T07:30:38;102662.22;;;12.80;100.00
59513;BME280;45330;51.634;5.562;2022-10-18T07:33:03;102679.75;;;12.89;100.00
59513;BME280;45330;51.634;5.562;2022-10-18T07:35:29;102684.97;;;12.87;100.00
59513;BME280;45330;51.634;5.562;2022-10-18T07:37:54;102678.75;;;12.79;100.00
59513;BME280;45330;51.634;5.562;2022-10-18T07:40:20;102688.38;;;12.83;100.00
59513;BME280;45330;51.634;5.562;2022-10-18T07:42:45;102690.13;;;12.83;100.00
59513;BME280;45330;51.634;5.562;2022-10-18T07:45:10;102698.03;;;12.87;100.00
59513;BME280;45330;51.634;5.562;2022-10-18T07:47:37;102706.00;;;12.95;100.00
59513;BME280;45330;51.634;5.562;2022-10-18T07:50:03;102703.44;;;13.01;100.00
59513;BME280;45330;51.634;5.562;2022-10-18T07:52:28;102710.34;;;12.98;100.00
59513;BME280;45330;51.634;5.562;2022-10-18T07:54:53;102696.38;;;12.94;100.00
59513;BME280;45330;51.634;5.562;2022-10-18T07:57:19;102716.47;;;12.97;100.00
59513;BME280;45330;51.634;5.562;2022-10-18T07:59:44;102723.53;;;13.04;100.00
59513;BME280;45330;51.634;5.562;2022-10-18T08:02:12;102716.38;;;12.92;100.00
59513;BME280;45330;51.634;5.562;2022-10-18T08:04:37;102716.47;;;12.97;100.00
59513;BME280;45330;51.634;5.562;2022-10-18T08:07:02;102735.69;;;13.02;100.00
59513;BME280;45330;51.634;5.562;2022-10-18T08:09:28;102736.59;;;13.04;100.00
59513;BME280;45330;51.634;5.562;2022-10-18T08:11:53;102723.41;;;12.98;100.00
59513;BME280;45330;51.634;5.562;2022-10-18T08:14:18;102723.38;;;12.95;100.00
59513;BME280;45330;51.634;5.562;2022-10-18T08:16:44;102713.94;;;13.04;100.00
59513;BME280;45330;51.634;5.562;2022-10-18T08:19:09;102746.50;;;13.30;100.00
59513;BME280;45330;51.634;5.562;2022-10-18T08:21:35;102740.53;;;13.37;100.00
59513;BME280;45330;51.634;5.562;2022-10-18T08:24:00;102751.03;;;13.40;100.00
59513;BME280;45330;51.634;5.562;2022-10-18T08:26:25;102731.75;;;13.33;100.00
59513;BME280;45330;51.634;5.562;2022-10-18T08:28:51;102723.97;;;13.36;100.00
59513;BME280;45330;51.634;5.562;2022-10-18T08:31:17;102719.53;;;13.32;100.00
59513;BME280;45330;51.634;5.562;2022-10-18T08:33:44;102737.00;;;13.33;100.00
59513;BME280;45330;51.634;5.562;2022-10-18T08:36:12;102743.13;;;13.35;100.00
59513;BME280;45330;51.634;5.562;2022-10-18T08:38:39;102753.53;;;13.34;100.00
59513;BME280;45330;51.634;5.562;2022-10-18T08:41:39;102749.09;;;13.27;100.00
59513;BME280;45330;51.634;5.562;2022-10-18T08:44:29;102706.88;;;12.97;100.00
59513;BME280;45330;51.634;5.562;2022-10-18T08:47:04;102738.44;;;13.11;100.00
59513;BME280;45330;51.634;5.562;2022-10-18T08:49:45;102756.84;;;13.20;100.00
59513;BME280;45330;51.634;5.562;2022-10-18T08:55:20;102726.19;;;13.07;100.00
59513;BME280;45330;51.634;5.562;2022-10-18T08:57:48;102731.38;;;13.06;100.00
59513;BME280;45330;51.634;5.562;2022-10-18T09:00:15;102737.56;;;13.11;100.00
59513;BME280;45330;51.634;5.562;2022-10-18T09:03:02;102753.50;;;13.31;100.00
59513;BME280;45330;51.634;5.562;2022-10-18T09:05:48;102751.09;;;13.43;100.00
59513;BME280;45330;51.634;5.562;2022-10-18T09:11:04;102763.41;;;13.53;100.00
59513;BME280;45330;51.634;5.562;2022-10-18T09:16:09;102730.06;;;13.37;100.00
59513;BME280;45330;51.634;5.562;2022-10-18T09:24:11;102757.28;;;13.51;100.00
59513;BME280;45330;51.634;5.562;2022-10-18T09:26:46;102764.25;;;13.49;100.00
59513;BME280;45330;51.634;5.562;2022-10-18T09:32:13;102745.94;;;13.51;100.00
59513;BME280;45330;51.634;5.562;2022-10-18T09:34:50;102766.06;;;13.55;100.00
59513;BME280;45330;51.634;5.562;2022-10-18T09:37:17;102762.59;;;13.58;100.00
59513;BME280;45330;51.634;5.562;2022-10-18T09:39:44;102746.75;;;13.45;100.00
59513;BME280;45330;51.634;5.562;2022-10-18T09:42:27;102740.72;;;13.51;100.00
59513;BME280;45330;51.634;5.562;2022-10-18T09:45:02;102746.84;;;13.53;100.00
59513;BME280;45330;51.634;5.562;2022-10-18T09:47:38;102766.13;;;13.63;100.00
59513;BME280;45330;51.634;5.562;2022-10-18T09:50:35;102754.78;;;13.62;100.00
59513;BME280;45330;51.634;5.562;2022-10-18T09:58:19;102767.00;;;13.62;100.00
59513;BME280;45330;51.634;5.562;2022-10-18T10:00:48;102757.44;;;13.64;100.00
59513;BME280;45330;51.634;5.562;2022-10-18T10:03:15;102752.16;;;13.61;100.00
59513;BME280;45330;51.634;5.562;2022-10-18T10:05:41;102764.47;;;13.71;100.00
59513;BME280;45330;51.634;5.562;2022-10-18T10:08:07;102751.38;;;13.69;100.00
59513;BME280;45330;51.634;5.562;2022-10-18T10:10:33;102746.13;;;13.66;100.00
59513;BME280;45330;51.634;5.562;2022-10-18T10:15:28;102747.94;;;13.73;100.00
59513;BME280;45330;51.634;5.562;2022-10-18T10:17:59;102758.44;;;13.75;100.00
59513;BME280;45330;51.634;5.562;2022-10-18T10:20:36;102776.06;;;13.90;100.00
59513;BME280;45330;51.634;5.562;2022-10-18T10:23:38;102775.22;;;13.94;100.00
59513;BME280;45330;51.634;5.562;2022-10-18T10:26:37;102777.75;;;13.88;100.00
59513;BME280;45330;51.634;5.562;2022-10-18T10:29:03;102769.09;;;13.92;100.00
59513;BME280;45330;51.634;5.562;2022-10-18T10:32:02;102774.41;;;13.98;100.00
59513;BME280;45330;51.634;5.562;2022-10-18T10:34:28;102786.78;;;14.15;100.00
59513;BME280;45330;51.634;5.562;2022-10-18T10:36:54;102758.75;;;14.03;100.00
59513;BME280;45330;51.634;5.562;2022-10-18T10:39:22;102767.56;;;14.14;100.00
59513;BME280;45330;51.634;5.562;2022-10-18T10:41:53;102779.94;;;14.26;100.00
59513;BME280;45330;51.634;5.562;2022-10-18T10:44:24;102782.50;;;14.24;100.00
59513;BME280;45330;51.634;5.562;2022-10-18T10:46:51;102791.41;;;14.40;100.00
59513;BME280;45330;51.634;5.562;2022-10-18T10:49:19;102784.38;;;14.35;100.00
59513;BME280;45330;51.634;5.562;2022-10-18T10:51:55;102786.16;;;14.39;100.00
59513;BME280;45330;51.634;5.562;2022-10-18T10:54:23;102785.34;;;14.46;100.00
59513;BME280;45330;51.634;5.562;2022-10-18T10:56:54;102807.25;;;14.53;100.00
59513;BME280;45330;51.634;5.562;2022-10-18T10:59:22;102809.09;;;14.65;100.00
59513;BME280;45330;51.634;5.562;2022-10-18T11:04:35;102803.03;;;14.69;100.00
59513;BME280;45330;51.634;5.562;2022-10-18T11:12:21;102805.78;;;14.84;100.00
59513;BME280;45330;51.634;5.562;2022-10-18T11:14:56;102796.16;;;14.86;100.00
59513;BME280;45330;51.634;5.562;2022-10-18T11:23:11;102809.38;;;15.02;100.00
59513;BME280;45330;51.634;5.562;2022-10-18T11:28:32;102798.03;;;15.01;100.00
59513;BME280;45330;51.634;5.562;2022-10-18T11:36:21;102782.38;;;15.11;100.00
59513;BME280;45330;51.634;5.562;2022-10-18T11:41:36;102802.59;;;15.35;100.00
59513;BME280;45330;51.634;5.562;2022-10-18T11:44:15;102792.13;;;15.35;100.00
59513;BME280;45330;51.634;5.562;2022-10-18T11:49:40;102787.72;;;15.32;100.00
59513;BME280;45330;51.634;5.562;2022-10-18T12:03:33;102787.81;;;15.48;100.00
59513;BME280;45330;51.634;5.562;2022-10-18T12:06:29;102790.44;;;15.49;100.00
59513;BME280;45330;51.634;5.562;2022-10-18T12:09:04;102783.41;;;15.45;100.00
59513;BME280;45330;51.634;5.562;2022-10-18T12:11:40;102783.41;;;15.48;100.00
59513;BME280;45330;51.634;5.562;2022-10-18T12:16:46;102762.41;;;15.40;100.00
59513;BME280;45330;51.634;5.562;2022-10-18T12:19:17;102779.09;;;15.59;100.00
59513;BME280;45330;51.634;5.562;2022-10-18T12:21:44;102765.09;;;15.53;100.00
59513;BME280;45330;51.634;5.562;2022-10-18T12:24:14;102772.97;;;15.56;100.00
59513;BME280;45330;51.634;5.562;2022-10-18T12:26:43;102769.50;;;15.58;100.00
59513;BME280;45330;51.634;5.562;2022-10-18T12:32:06;102776.53;;;15.75;100.00
59513;BME280;45330;51.634;5.562;2022-10-18T12:34:45;102760.78;;;15.70;100.00
59513;BME280;45330;51.634;5.562;2022-10-18T12:38:17;102774.78;;;15.78;100.00
59513;BME280;45330;51.634;5.562;2022-10-18T12:40:43;102773.06;;;15.79;100.00
59513;BME280;45330;51.634;5.562;2022-10-18T12:43:17;102772.22;;;15.82;100.00
59513;BME280;45330;51.634;5.562;2022-10-18T12:45:50;102773.97;;;15.84;100.00
59513;BME280;45330;51.634;5.562;2022-10-18T12:51:05;102767.00;;;15.91;100.00
59513;BME280;45330;51.634;5.562;2022-10-18T12:53:37;102766.09;;;15.90;100.00
59513;BME280;45330;51.634;5.562;2022-10-18T12:56:42;102766.97;;;15.80;100.00
59513;BME280;45330;51.634;5.562;2022-10-18T13:22:03;102757.38;;;15.94;100.00
59513;BME280;45330;51.634;5.562;2022-10-18T13:24:40;102749.47;;;15.94;100.00
59513;BME280;45330;51.634;5.562;2022-10-18T13:27:37;102758.25;;;15.95;100.00
59513;BME280;45330;51.634;5.562;2022-10-18T13:41:02;102737.22;;;15.92;100.00
59513;BME280;45330;51.634;5.562;2022-10-18T13:43:55;102753.00;;;16.01;100.00
59513;BME280;45330;51.634;5.562;2022-10-18T14:00:03;102763.50;;;15.95;100.00
59513;BME280;45330;51.634;5.562;2022-10-18T14:05:29;102760.88;;;15.93;100.00
59513;BME280;45330;51.634;5.562;2022-10-18T14:08:08;102750.34;;;15.83;100.00
59513;BME280;45330;51.634;5.562;2022-10-18T14:10:42;102757.34;;;15.88;100.00
59513;BME280;45330;51.634;5.562;2022-10-18T14:13:18;102743.28;;;15.72;100.00
59513;BME280;45330;51.634;5.562;2022-10-18T14:15:48;102761.72;;;15.83;100.00
59513;BME280;45330;51.634;5.562;2022-10-18T14:18:17;102766.97;;;15.80;99.63
59513;BME280;45330;51.634;5.562;2022-10-18T14:20:54;102759.91;;;15.73;96.86
59513;BME280;45330;51.634;5.562;2022-10-18T14:23:25;102755.50;;;15.67;97.44
59513;BME280;45330;51.634;5.562;2022-10-18T14:26:25;102763.41;;;15.75;100.00
59513;BME280;45330;51.634;5.562;2022-10-18T14:29:13;102762.53;;;15.76;100.00
59513;BME280;45330;51.634;5.562;2022-10-18T14:31:40;102745.00;;;15.63;94.28
59513;BME280;45330;51.634;5.562;2022-10-18T14:34:13;102750.22;;;15.59;97.41
59513;BME280;45330;51.634;5.562;2022-10-18T14:36:40;102763.34;;;15.61;94.01
59513;BME280;45330;51.634;5.562;2022-10-18T14:39:06;102765.09;;;15.62;95.20
59513;BME280;45330;51.634;5.562;2022-10-18T14:42:16;102765.09;;;15.62;100.00
59513;BME280;45330;51.634;5.562;2022-10-18T14:44:46;102758.09;;;15.56;96.54
59513;BME280;45330;51.634;5.562;2022-10-18T14:47:21;102751.09;;;15.55;99.39
59513;BME280;45330;51.634;5.562;2022-10-18T14:49:48;102747.53;;;15.44;99.18
59513;BME280;45330;51.634;5.562;2022-10-18T14:52:18;102753.69;;;15.46;100.00
59513;BME280;45330;51.634;5.562;2022-10-18T14:54:45;102767.72;;;15.53;100.00
59513;BME280;45330;51.634;5.562;2022-10-18T14:57:22;102760.72;;;15.53;99.73
59513;BME280;45330;51.634;5.562;2022-10-18T14:59:53;102762.44;;;15.48;100.00
59513;BME280;45330;51.634;5.562;2022-10-18T15:02:24;102745.75;;;15.35;99.54
59513;BME280;45330;51.634;5.562;2022-10-18T15:05:13;102758.03;;;15.38;100.00
59513;BME280;45330;51.634;5.562;2022-10-18T15:07:41;102761.50;;;15.37;100.00
59513;BME280;45330;51.634;5.562;2022-10-18T15:10:15;102761.50;;;15.34;100.00
59513;BME280;45330;51.634;5.562;2022-10-18T15:12:42;102764.13;;;15.35;100.00
59513;BME280;45330;51.634;5.562;2022-10-18T15:15:18;102760.56;;;15.25;100.00
59513;BME280;45330;51.634;5.562;2022-10-18T15:17:44;102762.34;;;15.23;100.00